sensor_id;sensor_type;location;lat;lon;timestamp;P1;durP1;ratioP1;P2;durP2;ratioP2
66597;SDS011;57424;53.128;6.406;2023-04-06T00:00:36;3.88;;;2.20;;
66597;SDS011;57424;53.128;6.406;2023-04-06T00:03:01;4.57;;;2.10;;
66597;SDS011;57424;53.128;6.406;2023-04-06T00:05:27;4.95;;;2.50;;
66597;SDS011;57424;53.128;6.406;2023-04-06T00:07:55;4.57;;;2.05;;
66597;SDS011;57424;53.128;6.406;2023-04-06T00:10:22;3.30;;;2.05;;
66597;SDS011;57424;53.128;6.406;2023-04-06T00:12:47;2.80;;;2.00;;
66597;SDS011;57424;53.128;6.406;2023-04-06T00:15:13;2.67;;;1.90;;
66597;SDS011;57424;53.128;6.406;2023-04-06T00:17:38;3.05;;;2.15;;
66597;SDS011;57424;53.128;6.406;2023-04-06T00:20:04;3.03;;;1.83;;
66597;SDS011;57424;53.128;6.406;2023-04-06T00:22:31;5.40;;;2.15;;
66597;SDS011;57424;53.128;6.406;2023-04-06T00:24:57;3.60;;;2.08;;
66597;SDS011;57424;53.128;6.406;2023-04-06T00:27:22;2.85;;;2.13;;
66597;SDS011;57424;53.128;6.406;2023-04-06T00:29:48;3.58;;;2.03;;
66597;SDS011;57424;53.128;6.406;2023-04-06T00:32:13;3.25;;;2.08;;
66597;SDS011;57424;53.128;6.406;2023-04-06T00:34:39;2.83;;;2.15;;
66597;SDS011;57424;53.128;6.406;2023-04-06T00:37:05;3.70;;;2.03;;
66597;SDS011;57424;53.128;6.406;2023-04-06T00:39:30;4.40;;;1.83;;
66597;SDS011;57424;53.128;6.406;2023-04-06T00:41:56;3.88;;;2.00;;
66597;SDS011;57424;53.128;6.406;2023-04-06T00:44:22;4.53;;;1.88;;
66597;SDS011;57424;53.128;6.406;2023-04-06T00:46:47;3.45;;;2.00;;
66597;SDS011;57424;53.128;6.406;2023-04-06T00:49:13;2.97;;;2.10;;
66597;SDS011;57424;53.128;6.406;2023-04-06T00:51:39;2.50;;;2.00;;
66597;SDS011;57424;53.128;6.406;2023-04-06T00:54:04;4.78;;;2.10;;
66597;SDS011;57424;53.128;6.406;2023-04-06T00:56:30;2.85;;;2.03;;
66597;SDS011;57424;53.128;6.406;2023-04-06T00:58:56;2.20;;;1.80;;
66597;SDS011;57424;53.128;6.406;2023-04-06T01:01:22;3.53;;;2.00;;
66597;SDS011;57424;53.128;6.406;2023-04-06T01:03:49;2.50;;;1.67;;
66597;SDS011;57424;53.128;6.406;2023-04-06T01:06:15;4.97;;;2.33;;
66597;SDS011;57424;53.128;6.406;2023-04-06T01:08:41;3.70;;;1.88;;
66597;SDS011;57424;53.128;6.406;2023-04-06T01:11:06;2.10;;;1.60;;
66597;SDS011;57424;53.128;6.406;2023-04-06T01:13:32;2.50;;;1.70;;
66597;SDS011;57424;53.128;6.406;2023-04-06T01:15:57;3.05;;;1.73;;
66597;SDS011;57424;53.128;6.406;2023-04-06T01:18:26;2.72;;;2.00;;
66597;SDS011;57424;53.128;6.406;2023-04-06T01:20:53;2.40;;;1.92;;
66597;SDS011;57424;53.128;6.406;2023-04-06T01:23:18;3.97;;;1.85;;
66597;SDS011;57424;53.128;6.406;2023-04-06T01:25:44;3.30;;;2.00;;
66597;SDS011;57424;53.128;6.406;2023-04-06T01:28:10;2.80;;;1.80;;
66597;SDS011;57424;53.128;6.406;2023-04-06T01:30:35;2.85;;;1.80;;
66597;SDS011;57424;53.128;6.406;2023-04-06T01:33:01;3.10;;;2.08;;
66597;SDS011;57424;53.128;6.406;2023-04-06T01:35:27;2.45;;;1.70;;
66597;SDS011;57424;53.128;6.406;2023-04-06T01:37:52;2.35;;;1.77;;
66597;SDS011;57424;53.128;6.406;2023-04-06T01:40:18;3.08;;;2.05;;
66597;SDS011;57424;53.128;6.406;2023-04-06T01:42:44;3.15;;;2.08;;
66597;SDS011;57424;53.128;6.406;2023-04-06T01:45:10;3.10;;;1.83;;
66597;SDS011;57424;53.128;6.406;2023-04-06T01:47:35;1.88;;;1.70;;
66597;SDS011;57424;53.128;6.406;2023-04-06T01:50:01;2.05;;;1.75;;
66597;SDS011;57424;53.128;6.406;2023-04-06T01:52:30;2.58;;;1.90;;
66597;SDS011;57424;53.128;6.406;2023-04-06T01:54:55;2.45;;;1.75;;
66597;SDS011;57424;53.128;6.406;2023-04-06T01:57:21;2.63;;;1.98;;
66597;SDS011;57424;53.128;6.406;2023-04-06T01:59:47;3.72;;;1.95;;
66597;SDS011;57424;53.128;6.406;2023-04-06T02:02:12;3.17;;;1.85;;
66597;SDS011;57424;53.128;6.406;2023-04-06T02:04:38;2.80;;;1.70;;
66597;SDS011;57424;53.128;6.406;2023-04-06T02:07:03;2.17;;;1.75;;
66597;SDS011;57424;53.128;6.406;2023-04-06T02:09:29;2.70;;;1.90;;
66597;SDS011;57424;53.128;6.406;2023-04-06T02:11:55;2.72;;;1.67;;
66597;SDS011;57424;53.128;6.406;2023-04-06T02:14:21;2.33;;;1.73;;
66597;SDS011;57424;53.128;6.406;2023-04-06T02:16:48;2.45;;;1.70;;
66597;SDS011;57424;53.128;6.406;2023-04-06T02:19:14;3.13;;;1.85;;
66597;SDS011;57424;53.128;6.406;2023-04-06T02:21:39;3.38;;;1.80;;
66597;SDS011;57424;53.128;6.406;2023-04-06T02:24:05;2.67;;;1.70;;
66597;SDS011;57424;53.128;6.406;2023-04-06T02:26:31;2.08;;;1.67;;
66597;SDS011;57424;53.128;6.406;2023-04-06T02:28:56;2.65;;;1.92;;
66597;SDS011;57424;53.128;6.406;2023-04-06T02:31:22;1.85;;;1.75;;
66597;SDS011;57424;53.128;6.406;2023-04-06T02:33:47;2.25;;;1.80;;
66597;SDS011;57424;53.128;6.406;2023-04-06T02:36:13;2.78;;;1.75;;
66597;SDS011;57424;53.128;6.406;2023-04-06T02:38:38;2.10;;;1.90;;
66597;SDS011;57424;53.128;6.406;2023-04-06T02:41:04;1.90;;;1.70;;
66597;SDS011;57424;53.128;6.406;2023-04-06T02:43:30;3.00;;;1.80;;
66597;SDS011;57424;53.128;6.406;2023-04-06T02:45:55;2.88;;;1.50;;
66597;SDS011;57424;53.128;6.406;2023-04-06T02:48:21;2.17;;;1.50;;
66597;SDS011;57424;53.128;6.406;2023-04-06T02:50:47;1.92;;;1.70;;
66597;SDS011;57424;53.128;6.406;2023-04-06T02:53:12;2.90;;;1.95;;
66597;SDS011;57424;53.128;6.406;2023-04-06T02:55:38;1.60;;;1.48;;
66597;SDS011;57424;53.128;6.406;2023-04-06T02:58:03;2.75;;;1.77;;
66597;SDS011;57424;53.128;6.406;2023-04-06T03:00:29;2.50;;;1.60;;
66597;SDS011;57424;53.128;6.406;2023-04-06T03:02:55;1.92;;;1.70;;
66597;SDS011;57424;53.128;6.406;2023-04-06T03:05:20;2.63;;;1.50;;
66597;SDS011;57424;53.128;6.406;2023-04-06T03:07:46;2.53;;;1.73;;
66597;SDS011;57424;53.128;6.406;2023-04-06T03:10:11;2.67;;;1.67;;
66597;SDS011;57424;53.128;6.406;2023-04-06T03:12:37;2.00;;;1.67;;
66597;SDS011;57424;53.128;6.406;2023-04-06T03:15:02;2.97;;;1.80;;
66597;SDS011;57424;53.128;6.406;2023-04-06T03:17:28;2.13;;;1.70;;
66597;SDS011;57424;53.128;6.406;2023-04-06T03:19:54;2.15;;;1.70;;
66597;SDS011;57424;53.128;6.406;2023-04-06T03:22:20;1.60;;;1.50;;
66597;SDS011;57424;53.128;6.406;2023-04-06T03:24:45;2.22;;;1.65;;
66597;SDS011;57424;53.128;6.406;2023-04-06T03:27:11;3.47;;;2.00;;
66597;SDS011;57424;53.128;6.406;2023-04-06T03:29:36;1.70;;;1.60;;
66597;SDS011;57424;53.128;6.406;2023-04-06T03:32:02;2.30;;;1.60;;
66597;SDS011;57424;53.128;6.406;2023-04-06T03:34:28;2.95;;;1.85;;
66597;SDS011;57424;53.128;6.406;2023-04-06T03:36:54;2.53;;;1.77;;
66597;SDS011;57424;53.128;6.406;2023-04-06T03:39:19;2.03;;;1.60;;
66597;SDS011;57424;53.128;6.406;2023-04-06T03:41:45;2.15;;;1.50;;
66597;SDS011;57424;53.128;6.406;2023-04-06T03:44:11;2.20;;;1.60;;
66597;SDS011;57424;53.128;6.406;2023-04-06T03:46:36;2.22;;;1.65;;
66597;SDS011;57424;53.128;6.406;2023-04-06T03:49:02;2.20;;;1.70;;
66597;SDS011;57424;53.128;6.406;2023-04-06T03:51:27;2.53;;;1.73;;
66597;SDS011;57424;53.128;6.406;2023-04-06T03:53:53;2.15;;;1.50;;
66597;SDS011;57424;53.128;6.406;2023-04-06T03:56:18;2.78;;;1.77;;
66597;SDS011;57424;53.128;6.406;2023-04-06T03:58:44;2.47;;;1.60;;
66597;SDS011;57424;53.128;6.406;2023-04-06T04:01:10;2.78;;;1.67;;
66597;SDS011;57424;53.128;6.406;2023-04-06T04:03:36;3.03;;;1.80;;
66597;SDS011;57424;53.128;6.406;2023-04-06T04:06:01;2.20;;;1.80;;
66597;SDS011;57424;53.128;6.406;2023-04-06T04:08:27;1.73;;;1.60;;
66597;SDS011;57424;53.128;6.406;2023-04-06T04:10:52;2.47;;;1.73;;
66597;SDS011;57424;53.128;6.406;2023-04-06T04:13:18;2.35;;;1.90;;
66597;SDS011;57424;53.128;6.406;2023-04-06T04:15:44;2.55;;;1.70;;
66597;SDS011;57424;53.128;6.406;2023-04-06T04:18:12;4.18;;;1.80;;
66597;SDS011;57424;53.128;6.406;2023-04-06T04:20:37;2.83;;;1.80;;
66597;SDS011;57424;53.128;6.406;2023-04-06T04:23:03;2.45;;;1.55;;
66597;SDS011;57424;53.128;6.406;2023-04-06T04:25:29;2.03;;;1.80;;
66597;SDS011;57424;53.128;6.406;2023-04-06T04:27:54;2.58;;;1.60;;
66597;SDS011;57424;53.128;6.406;2023-04-06T04:30:20;2.40;;;1.65;;
66597;SDS011;57424;53.128;6.406;2023-04-06T04:32:46;2.22;;;1.42;;
66597;SDS011;57424;53.128;6.406;2023-04-06T04:35:11;2.28;;;1.90;;
66597;SDS011;57424;53.128;6.406;2023-04-06T04:37:38;1.65;;;1.50;;
66597;SDS011;57424;53.128;6.406;2023-04-06T04:40:05;2.83;;;1.50;;
66597;SDS011;57424;53.128;6.406;2023-04-06T04:42:31;2.90;;;1.50;;
66597;SDS011;57424;53.128;6.406;2023-04-06T04:44:57;2.00;;;1.58;;
66597;SDS011;57424;53.128;6.406;2023-04-06T04:47:23;1.92;;;1.38;;
66597;SDS011;57424;53.128;6.406;2023-04-06T04:49:48;1.40;;;1.30;;
66597;SDS011;57424;53.128;6.406;2023-04-06T04:52:14;2.03;;;1.55;;
66597;SDS011;57424;53.128;6.406;2023-04-06T04:54:39;1.95;;;1.38;;
66597;SDS011;57424;53.128;6.406;2023-04-06T04:57:06;1.77;;;1.40;;
66597;SDS011;57424;53.128;6.406;2023-04-06T04:59:32;2.25;;;1.38;;
66597;SDS011;57424;53.128;6.406;2023-04-06T05:01:59;2.30;;;1.60;;
66597;SDS011;57424;53.128;6.406;2023-04-06T05:04:24;1.65;;;1.50;;
66597;SDS011;57424;53.128;6.406;2023-04-06T05:06:51;2.05;;;1.52;;
66597;SDS011;57424;53.128;6.406;2023-04-06T05:09:29;1.98;;;1.42;;
66597;SDS011;57424;53.128;6.406;2023-04-06T05:11:56;2.08;;;1.70;;
66597;SDS011;57424;53.128;6.406;2023-04-06T05:14:22;2.70;;;1.48;;
66597;SDS011;57424;53.128;6.406;2023-04-06T05:16:47;2.72;;;1.67;;
66597;SDS011;57424;53.128;6.406;2023-04-06T05:19:13;1.55;;;1.30;;
66597;SDS011;57424;53.128;6.406;2023-04-06T05:21:38;2.58;;;1.50;;
66597;SDS011;57424;53.128;6.406;2023-04-06T05:24:04;1.90;;;1.67;;
66597;SDS011;57424;53.128;6.406;2023-04-06T05:26:30;2.00;;;1.40;;
66597;SDS011;57424;53.128;6.406;2023-04-06T05:28:55;1.92;;;1.52;;
66597;SDS011;57424;53.128;6.406;2023-04-06T05:31:21;2.53;;;1.50;;
66597;SDS011;57424;53.128;6.406;2023-04-06T05:33:47;1.70;;;1.33;;
66597;SDS011;57424;53.128;6.406;2023-04-06T05:36:12;1.92;;;1.40;;
66597;SDS011;57424;53.128;6.406;2023-04-06T05:38:38;2.35;;;1.65;;
66597;SDS011;57424;53.128;6.406;2023-04-06T05:41:03;1.60;;;1.35;;
66597;SDS011;57424;53.128;6.406;2023-04-06T05:43:29;1.38;;;1.20;;
66597;SDS011;57424;53.128;6.406;2023-04-06T05:45:54;5.60;;;1.38;;
66597;SDS011;57424;53.128;6.406;2023-04-06T05:48:20;1.50;;;1.30;;
66597;SDS011;57424;53.128;6.406;2023-04-06T05:50:49;2.10;;;1.60;;
66597;SDS011;57424;53.128;6.406;2023-04-06T05:53:15;3.97;;;1.55;;
66597;SDS011;57424;53.128;6.406;2023-04-06T05:55:41;1.88;;;1.50;;
66597;SDS011;57424;53.128;6.406;2023-04-06T05:58:06;1.88;;;1.42;;
66597;SDS011;57424;53.128;6.406;2023-04-06T06:00:32;3.25;;;1.60;;
66597;SDS011;57424;53.128;6.406;2023-04-06T06:02:58;2.60;;;1.60;;
66597;SDS011;57424;53.128;6.406;2023-04-06T06:05:23;2.72;;;1.77;;
66597;SDS011;57424;53.128;6.406;2023-04-06T06:07:49;2.05;;;1.83;;
66597;SDS011;57424;53.128;6.406;2023-04-06T06:10:15;4.32;;;1.70;;
66597;SDS011;57424;53.128;6.406;2023-04-06T06:12:40;3.30;;;1.75;;
66597;SDS011;57424;53.128;6.406;2023-04-06T06:15:06;4.75;;;1.90;;
66597;SDS011;57424;53.128;6.406;2023-04-06T06:17:32;1.83;;;1.50;;
66597;SDS011;57424;53.128;6.406;2023-04-06T06:19:57;2.75;;;1.73;;
66597;SDS011;57424;53.128;6.406;2023-04-06T06:22:23;3.13;;;2.00;;
66597;SDS011;57424;53.128;6.406;2023-04-06T06:24:49;2.38;;;1.88;;
66597;SDS011;57424;53.128;6.406;2023-04-06T06:27:15;2.65;;;1.70;;
66597;SDS011;57424;53.128;6.406;2023-04-06T06:29:41;2.33;;;1.70;;
66597;SDS011;57424;53.128;6.406;2023-04-06T06:32:06;2.47;;;1.98;;
66597;SDS011;57424;53.128;6.406;2023-04-06T06:34:34;2.65;;;2.13;;
66597;SDS011;57424;53.128;6.406;2023-04-06T06:37:00;2.40;;;1.67;;
66597;SDS011;57424;53.128;6.406;2023-04-06T06:39:27;4.03;;;1.80;;
66597;SDS011;57424;53.128;6.406;2023-04-06T06:41:52;2.10;;;1.75;;
66597;SDS011;57424;53.128;6.406;2023-04-06T06:44:20;2.00;;;1.60;;
66597;SDS011;57424;53.128;6.406;2023-04-06T06:46:46;4.30;;;1.80;;
66597;SDS011;57424;53.128;6.406;2023-04-06T06:49:12;3.88;;;1.63;;
66597;SDS011;57424;53.128;6.406;2023-04-06T06:51:39;1.63;;;1.40;;
66597;SDS011;57424;53.128;6.406;2023-04-06T06:54:05;2.13;;;1.48;;
66597;SDS011;57424;53.128;6.406;2023-04-06T06:56:30;3.75;;;1.67;;
66597;SDS011;57424;53.128;6.406;2023-04-06T06:58:56;1.83;;;1.40;;
66597;SDS011;57424;53.128;6.406;2023-04-06T07:01:22;1.85;;;1.30;;
66597;SDS011;57424;53.128;6.406;2023-04-06T07:03:47;1.77;;;1.48;;
66597;SDS011;57424;53.128;6.406;2023-04-06T07:06:13;3.08;;;1.75;;
66597;SDS011;57424;53.128;6.406;2023-04-06T07:08:38;2.88;;;1.70;;
66597;SDS011;57424;53.128;6.406;2023-04-06T07:11:04;3.95;;;1.52;;
66597;SDS011;57424;53.128;6.406;2023-04-06T07:13:29;4.57;;;1.88;;
66597;SDS011;57424;53.128;6.406;2023-04-06T07:15:55;2.92;;;1.63;;
66597;SDS011;57424;53.128;6.406;2023-04-06T07:18:21;2.47;;;1.70;;
66597;SDS011;57424;53.128;6.406;2023-04-06T07:20:47;3.05;;;1.85;;
66597;SDS011;57424;53.128;6.406;2023-04-06T07:23:13;2.35;;;1.77;;
66597;SDS011;57424;53.128;6.406;2023-04-06T07:25:39;3.30;;;1.85;;
66597;SDS011;57424;53.128;6.406;2023-04-06T07:28:04;3.88;;;1.70;;
66597;SDS011;57424;53.128;6.406;2023-04-06T07:30:30;3.03;;;2.05;;
66597;SDS011;57424;53.128;6.406;2023-04-06T07:32:56;4.10;;;2.10;;
66597;SDS011;57424;53.128;6.406;2023-04-06T07:35:22;2.90;;;2.20;;
66597;SDS011;57424;53.128;6.406;2023-04-06T07:37:49;3.33;;;2.10;;
66597;SDS011;57424;53.128;6.406;2023-04-06T07:40:15;3.38;;;1.90;;
66597;SDS011;57424;53.128;6.406;2023-04-06T07:42:40;3.50;;;1.70;;
66597;SDS011;57424;53.128;6.406;2023-04-06T07:45:06;3.50;;;2.00;;
66597;SDS011;57424;53.128;6.406;2023-04-06T07:47:32;2.58;;;2.00;;
66597;SDS011;57424;53.128;6.406;2023-04-06T07:49:58;3.55;;;2.08;;
66597;SDS011;57424;53.128;6.406;2023-04-06T07:52:23;2.97;;;1.98;;
66597;SDS011;57424;53.128;6.406;2023-04-06T07:54:49;4.25;;;2.25;;
66597;SDS011;57424;53.128;6.406;2023-04-06T07:57:15;2.50;;;2.00;;
66597;SDS011;57424;53.128;6.406;2023-04-06T07:59:41;2.60;;;2.22;;
66597;SDS011;57424;53.128;6.406;2023-04-06T08:02:06;3.38;;;2.00;;
66597;SDS011;57424;53.128;6.406;2023-04-06T08:04:32;2.88;;;1.92;;
66597;SDS011;57424;53.128;6.406;2023-04-06T08:06:57;5.43;;;2.38;;
66597;SDS011;57424;53.128;6.406;2023-04-06T08:09:23;2.72;;;2.10;;
66597;SDS011;57424;53.128;6.406;2023-04-06T08:11:49;4.45;;;1.85;;
66597;SDS011;57424;53.128;6.406;2023-04-06T08:14:14;3.08;;;1.80;;
66597;SDS011;57424;53.128;6.406;2023-04-06T08:16:41;2.72;;;2.22;;
66597;SDS011;57424;53.128;6.406;2023-04-06T08:19:06;3.55;;;1.90;;
66597;SDS011;57424;53.128;6.406;2023-04-06T08:21:34;3.78;;;2.05;;
66597;SDS011;57424;53.128;6.406;2023-04-06T08:24:00;5.40;;;2.30;;
66597;SDS011;57424;53.128;6.406;2023-04-06T08:26:26;4.18;;;2.35;;
66597;SDS011;57424;53.128;6.406;2023-04-06T08:28:53;4.72;;;2.53;;
66597;SDS011;57424;53.128;6.406;2023-04-06T08:31:18;2.50;;;2.10;;
66597;SDS011;57424;53.128;6.406;2023-04-06T08:33:44;3.75;;;2.38;;
66597;SDS011;57424;53.128;6.406;2023-04-06T08:36:10;4.45;;;2.28;;
66597;SDS011;57424;53.128;6.406;2023-04-06T08:38:37;3.63;;;2.30;;
66597;SDS011;57424;53.128;6.406;2023-04-06T08:41:07;3.92;;;2.70;;
66597;SDS011;57424;53.128;6.406;2023-04-06T08:43:34;5.18;;;2.65;;
66597;SDS011;57424;53.128;6.406;2023-04-06T08:46:07;5.60;;;2.78;;
66597;SDS011;57424;53.128;6.406;2023-04-06T08:48:33;3.47;;;2.63;;
66597;SDS011;57424;53.128;6.406;2023-04-06T08:51:00;5.63;;;2.75;;
66597;SDS011;57424;53.128;6.406;2023-04-06T08:53:27;4.20;;;2.45;;
66597;SDS011;57424;53.128;6.406;2023-04-06T08:55:53;4.97;;;2.75;;
66597;SDS011;57424;53.128;6.406;2023-04-06T08:58:19;5.53;;;2.30;;
66597;SDS011;57424;53.128;6.406;2023-04-06T09:00:46;5.00;;;2.40;;
66597;SDS011;57424;53.128;6.406;2023-04-06T09:03:12;5.22;;;2.20;;
66597;SDS011;57424;53.128;6.406;2023-04-06T09:05:38;3.55;;;2.47;;
66597;SDS011;57424;53.128;6.406;2023-04-06T09:08:04;3.97;;;2.70;;
66597;SDS011;57424;53.128;6.406;2023-04-06T09:10:31;4.32;;;2.40;;
66597;SDS011;57424;53.128;6.406;2023-04-06T09:13:07;5.22;;;2.50;;
66597;SDS011;57424;53.128;6.406;2023-04-06T09:15:33;5.13;;;2.90;;
66597;SDS011;57424;53.128;6.406;2023-04-06T09:17:59;4.93;;;3.03;;
66597;SDS011;57424;53.128;6.406;2023-04-06T09:20:26;4.32;;;2.70;;
66597;SDS011;57424;53.128;6.406;2023-04-06T09:22:53;3.53;;;2.58;;
66597;SDS011;57424;53.128;6.406;2023-04-06T09:25:20;11.25;;;3.15;;
66597;SDS011;57424;53.128;6.406;2023-04-06T09:27:48;5.40;;;2.80;;
66597;SDS011;57424;53.128;6.406;2023-04-06T09:30:22;4.65;;;2.60;;
66597;SDS011;57424;53.128;6.406;2023-04-06T09:32:50;5.03;;;2.63;;
66597;SDS011;57424;53.128;6.406;2023-04-06T09:35:20;9.43;;;3.08;;
66597;SDS011;57424;53.128;6.406;2023-04-06T09:37:47;6.38;;;2.90;;
66597;SDS011;57424;53.128;6.406;2023-04-06T09:40:13;7.53;;;2.80;;
66597;SDS011;57424;53.128;6.406;2023-04-06T09:42:44;10.23;;;3.10;;
66597;SDS011;57424;53.128;6.406;2023-04-06T09:45:11;4.32;;;2.63;;
66597;SDS011;57424;53.128;6.406;2023-04-06T09:47:38;6.75;;;3.10;;
66597;SDS011;57424;53.128;6.406;2023-04-06T09:50:05;9.02;;;3.30;;
66597;SDS011;57424;53.128;6.406;2023-04-06T09:52:55;5.15;;;3.28;;
66597;SDS011;57424;53.128;6.406;2023-04-06T09:55:30;6.57;;;3.08;;
66597;SDS011;57424;53.128;6.406;2023-04-06T09:58:05;5.65;;;2.70;;
66597;SDS011;57424;53.128;6.406;2023-04-06T10:03:26;7.13;;;3.00;;
66597;SDS011;57424;53.128;6.406;2023-04-06T10:06:05;8.25;;;3.40;;
66597;SDS011;57424;53.128;6.406;2023-04-06T10:08:38;4.50;;;3.10;;
66597;SDS011;57424;53.128;6.406;2023-04-06T10:11:07;7.25;;;3.70;;
66597;SDS011;57424;53.128;6.406;2023-04-06T10:16:00;7.30;;;3.47;;
66597;SDS011;57424;53.128;6.406;2023-04-06T10:18:28;7.38;;;3.65;;
66597;SDS011;57424;53.128;6.406;2023-04-06T10:20:56;7.78;;;3.65;;
66597;SDS011;57424;53.128;6.406;2023-04-06T10:23:43;7.32;;;3.55;;
66597;SDS011;57424;53.128;6.406;2023-04-06T10:26:13;7.60;;;3.80;;
66597;SDS011;57424;53.128;6.406;2023-04-06T10:28:41;7.80;;;3.75;;
66597;SDS011;57424;53.128;6.406;2023-04-06T10:31:08;7.47;;;3.70;;
66597;SDS011;57424;53.128;6.406;2023-04-06T10:33:33;6.53;;;3.90;;
66597;SDS011;57424;53.128;6.406;2023-04-06T10:36:09;6.03;;;4.13;;
66597;SDS011;57424;53.128;6.406;2023-04-06T10:38:39;6.55;;;4.65;;
66597;SDS011;57424;53.128;6.406;2023-04-06T10:41:06;7.97;;;4.53;;
66597;SDS011;57424;53.128;6.406;2023-04-06T10:43:34;6.55;;;4.40;;
66597;SDS011;57424;53.128;6.406;2023-04-06T10:46:04;7.32;;;4.55;;
66597;SDS011;57424;53.128;6.406;2023-04-06T10:48:38;8.02;;;5.45;;
66597;SDS011;57424;53.128;6.406;2023-04-06T10:51:14;6.38;;;4.70;;
66597;SDS011;57424;53.128;6.406;2023-04-06T10:53:42;7.13;;;4.75;;
66597;SDS011;57424;53.128;6.406;2023-04-06T10:56:10;7.53;;;5.20;;
66597;SDS011;57424;53.128;6.406;2023-04-06T10:58:37;8.00;;;5.63;;
66597;SDS011;57424;53.128;6.406;2023-04-06T11:01:03;7.03;;;5.55;;
66597;SDS011;57424;53.128;6.406;2023-04-06T11:03:28;12.38;;;5.97;;
66597;SDS011;57424;53.128;6.406;2023-04-06T11:05:54;8.05;;;6.15;;
66597;SDS011;57424;53.128;6.406;2023-04-06T11:08:28;6.93;;;5.20;;
66597;SDS011;57424;53.128;6.406;2023-04-06T11:11:05;7.30;;;6.10;;
66597;SDS011;57424;53.128;6.406;2023-04-06T11:13:44;8.23;;;6.18;;
66597;SDS011;57424;53.128;6.406;2023-04-06T11:18:54;8.43;;;6.22;;
66597;SDS011;57424;53.128;6.406;2023-04-06T11:21:36;7.68;;;5.82;;
66597;SDS011;57424;53.128;6.406;2023-04-06T11:24:12;6.60;;;5.40;;
66597;SDS011;57424;53.128;6.406;2023-04-06T11:26:42;8.57;;;6.13;;
66597;SDS011;57424;53.128;6.406;2023-04-06T11:31:39;7.30;;;5.65;;
66597;SDS011;57424;53.128;6.406;2023-04-06T11:34:12;8.02;;;6.22;;
66597;SDS011;57424;53.128;6.406;2023-04-06T11:36:42;7.57;;;5.57;;
66597;SDS011;57424;53.128;6.406;2023-04-06T11:39:09;8.50;;;6.63;;
66597;SDS011;57424;53.128;6.406;2023-04-06T11:41:36;7.95;;;6.25;;
66597;SDS011;57424;53.128;6.406;2023-04-06T11:44:02;8.73;;;6.38;;
66597;SDS011;57424;53.128;6.406;2023-04-06T11:46:28;8.35;;;5.60;;
66597;SDS011;57424;53.128;6.406;2023-04-06T11:48:57;8.13;;;6.43;;
66597;SDS011;57424;53.128;6.406;2023-04-06T11:51:24;7.35;;;6.00;;
66597;SDS011;57424;53.128;6.406;2023-04-06T11:53:49;7.72;;;6.30;;
66597;SDS011;57424;53.128;6.406;2023-04-06T11:56:25;7.90;;;6.18;;
66597;SDS011;57424;53.128;6.406;2023-04-06T11:58:53;8.43;;;6.13;;
66597;SDS011;57424;53.128;6.406;2023-04-06T12:01:20;8.40;;;5.78;;
66597;SDS011;57424;53.128;6.406;2023-04-06T12:03:45;7.28;;;5.88;;
66597;SDS011;57424;53.128;6.406;2023-04-06T12:06:11;7.38;;;6.45;;
66597;SDS011;57424;53.128;6.406;2023-04-06T12:08:37;7.68;;;6.03;;
66597;SDS011;57424;53.128;6.406;2023-04-06T12:11:02;7.40;;;6.60;;
66597;SDS011;57424;53.128;6.406;2023-04-06T12:13:28;7.13;;;5.80;;
66597;SDS011;57424;53.128;6.406;2023-04-06T12:15:53;7.38;;;6.40;;
66597;SDS011;57424;53.128;6.406;2023-04-06T12:18:19;7.78;;;6.47;;
66597;SDS011;57424;53.128;6.406;2023-04-06T12:20:45;8.40;;;6.60;;
66597;SDS011;57424;53.128;6.406;2023-04-06T12:23:10;8.63;;;6.90;;
66597;SDS011;57424;53.128;6.406;2023-04-06T12:25:36;8.05;;;6.55;;
66597;SDS011;57424;53.128;6.406;2023-04-06T12:28:04;8.50;;;6.50;;
66597;SDS011;57424;53.128;6.406;2023-04-06T12:30:30;8.48;;;6.53;;
66597;SDS011;57424;53.128;6.406;2023-04-06T12:32:57;8.63;;;7.10;;
66597;SDS011;57424;53.128;6.406;2023-04-06T12:35:22;9.60;;;6.22;;
66597;SDS011;57424;53.128;6.406;2023-04-06T12:37:48;7.63;;;6.15;;
66597;SDS011;57424;53.128;6.406;2023-04-06T12:40:13;7.82;;;6.50;;
66597;SDS011;57424;53.128;6.406;2023-04-06T12:42:39;8.13;;;6.20;;
66597;SDS011;57424;53.128;6.406;2023-04-06T12:45:06;8.00;;;6.47;;
66597;SDS011;57424;53.128;6.406;2023-04-06T12:47:33;7.40;;;6.30;;
66597;SDS011;57424;53.128;6.406;2023-04-06T12:49:58;6.90;;;6.10;;
66597;SDS011;57424;53.128;6.406;2023-04-06T12:52:24;7.82;;;6.78;;
66597;SDS011;57424;53.128;6.406;2023-04-06T12:54:50;7.15;;;5.78;;
66597;SDS011;57424;53.128;6.406;2023-04-06T12:57:16;7.57;;;6.78;;
66597;SDS011;57424;53.128;6.406;2023-04-06T12:59:44;8.15;;;6.65;;
66597;SDS011;57424;53.128;6.406;2023-04-06T13:02:11;9.05;;;6.20;;
66597;SDS011;57424;53.128;6.406;2023-04-06T13:04:36;7.20;;;5.88;;
66597;SDS011;57424;53.128;6.406;2023-04-06T13:07:02;8.05;;;6.97;;
66597;SDS011;57424;53.128;6.406;2023-04-06T13:09:27;7.97;;;6.43;;
66597;SDS011;57424;53.128;6.406;2023-04-06T13:11:53;9.05;;;7.28;;
66597;SDS011;57424;53.128;6.406;2023-04-06T13:14:19;7.07;;;5.93;;
66597;SDS011;57424;53.128;6.406;2023-04-06T13:16:45;7.05;;;5.95;;
66597;SDS011;57424;53.128;6.406;2023-04-06T13:19:11;8.13;;;6.43;;
66597;SDS011;57424;53.128;6.406;2023-04-06T13:21:37;8.35;;;6.60;;
66597;SDS011;57424;53.128;6.406;2023-04-06T13:24:02;7.80;;;6.90;;
66597;SDS011;57424;53.128;6.406;2023-04-06T13:26:29;9.40;;;8.05;;
66597;SDS011;57424;53.128;6.406;2023-04-06T13:28:55;10.52;;;8.70;;
66597;SDS011;57424;53.128;6.406;2023-04-06T13:31:21;12.65;;;9.30;;
66597;SDS011;57424;53.128;6.406;2023-04-06T13:33:47;10.82;;;8.23;;
66597;SDS011;57424;53.128;6.406;2023-04-06T13:36:13;8.70;;;6.82;;
66597;SDS011;57424;53.128;6.406;2023-04-06T13:38:38;9.52;;;6.38;;
66597;SDS011;57424;53.128;6.406;2023-04-06T13:41:04;8.20;;;5.90;;
66597;SDS011;57424;53.128;6.406;2023-04-06T13:43:30;7.15;;;5.68;;
66597;SDS011;57424;53.128;6.406;2023-04-06T13:45:56;7.50;;;5.57;;
66597;SDS011;57424;53.128;6.406;2023-04-06T13:48:24;7.68;;;4.95;;
66597;SDS011;57424;53.128;6.406;2023-04-06T13:50:53;6.63;;;5.10;;
66597;SDS011;57424;53.128;6.406;2023-04-06T13:53:19;6.43;;;5.10;;
66597;SDS011;57424;53.128;6.406;2023-04-06T13:55:51;5.85;;;4.40;;
66597;SDS011;57424;53.128;6.406;2023-04-06T13:58:18;6.90;;;4.65;;
66597;SDS011;57424;53.128;6.406;2023-04-06T14:00:43;7.93;;;4.68;;
66597;SDS011;57424;53.128;6.406;2023-04-06T14:03:09;6.25;;;4.63;;
66597;SDS011;57424;53.128;6.406;2023-04-06T14:05:35;6.20;;;4.53;;
66597;SDS011;57424;53.128;6.406;2023-04-06T14:08:01;6.82;;;4.45;;
66597;SDS011;57424;53.128;6.406;2023-04-06T14:10:27;5.15;;;4.50;;
66597;SDS011;57424;53.128;6.406;2023-04-06T14:12:52;5.82;;;4.90;;
66597;SDS011;57424;53.128;6.406;2023-04-06T14:15:18;5.70;;;4.95;;
66597;SDS011;57424;53.128;6.406;2023-04-06T14:17:44;6.40;;;4.60;;
66597;SDS011;57424;53.128;6.406;2023-04-06T14:20:09;5.20;;;4.30;;
66597;SDS011;57424;53.128;6.406;2023-04-06T14:22:39;6.40;;;4.60;;
66597;SDS011;57424;53.128;6.406;2023-04-06T14:25:06;5.82;;;4.32;;
66597;SDS011;57424;53.128;6.406;2023-04-06T14:27:32;5.82;;;4.60;;
66597;SDS011;57424;53.128;6.406;2023-04-06T14:29:57;5.38;;;4.70;;
66597;SDS011;57424;53.128;6.406;2023-04-06T14:32:23;5.60;;;4.47;;
66597;SDS011;57424;53.128;6.406;2023-04-06T14:34:49;6.93;;;5.00;;
66597;SDS011;57424;53.128;6.406;2023-04-06T14:37:15;6.53;;;5.28;;
66597;SDS011;57424;53.128;6.406;2023-04-06T14:39:42;7.18;;;4.45;;
66597;SDS011;57424;53.128;6.406;2023-04-06T14:42:07;5.50;;;4.70;;
66597;SDS011;57424;53.128;6.406;2023-04-06T14:44:33;8.73;;;4.97;;
66597;SDS011;57424;53.128;6.406;2023-04-06T14:49:28;6.88;;;4.30;;
66597;SDS011;57424;53.128;6.406;2023-04-06T14:51:54;7.75;;;4.70;;
66597;SDS011;57424;53.128;6.406;2023-04-06T14:54:21;5.63;;;4.30;;
66597;SDS011;57424;53.128;6.406;2023-04-06T14:56:47;5.20;;;4.50;;